Time;durP1;ratioP1;P1;durP2;ratioP2;P2;SDS_P1;SDS_P2;PMS_P1;PMS_P2;Temp;Humidity;BMP_temperature;BMP_pressure;BME280_temperature;BME280_humidity;BME280_pressure;Samples;Min_cycle;Max_cycle;Signal;HPM_P1;HPM_P2
2024/02/29 00:02:25;;;;;;;2.10;1.25;;;17.60;65.00;;;;;;6220253;23;20137;-89
2024/02/29 00:04:50;;;;;;;1.60;1.10;;;17.60;65.20;;;;;;6194529;23;20237;-89
2024/02/29 00:07:18;;;;;;;1.35;1.15;;;17.60;65.00;;;;;;6170291;23;20153;-88
2024/02/29 00:09:44;;;;;;;1.40;1.25;;;17.60;65.30;;;;;;6195191;23;20160;-89
2024/02/29 00:12:10;;;;;;;1.77;1.23;;;17.60;65.10;;;;;;6193270;23;20180;-88
2024/02/29 00:14:38;;;;;;;1.55;1.17;;;17.60;65.10;;;;;;6168818;23;20155;-87
2024/02/29 00:17:04;;;;;;;2.53;1.25;;;17.60;65.00;;;;;;6196812;22;20153;-88
2024/02/29 00:19:32;;;;;;;2.75;1.15;;;17.50;65.00;;;;;;6200715;22;20491;-87
2024/02/29 00:21:58;;;;;;;1.77;1.40;;;17.60;65.40;;;;;;6225451;22;20545;-88
2024/02/29 00:24:24;;;;;;;1.50;1.25;;;17.60;65.40;;;;;;6225185;22;20218;-88
2024/02/29 00:26:50;;;;;;;2.13;1.30;;;17.60;65.70;;;;;;6224925;22;20156;-87
2024/02/29 00:29:16;;;;;;;1.58;1.30;;;17.60;65.40;;;;;;6199893;22;20159;-88
2024/02/29 00:31:43;;;;;;;1.48;1.10;;;17.50;65.80;;;;;;6223472;22;20261;-87
2024/02/29 00:34:13;;;;;;;2.70;1.23;;;17.50;65.20;;;;;;6223812;22;20311;-89
2024/02/29 00:36:39;;;;;;;1.25;1.15;;;17.60;65.30;;;;;;6173860;22;20145;-87
2024/02/29 00:39:07;;;;;;;1.27;1.17;;;17.60;65.00;;;;;;6199148;22;20152;-88
2024/02/29 00:41:33;;;;;;;1.45;1.20;;;17.60;65.20;;;;;;6200012;22;20171;-88
2024/02/29 00:44:00;;;;;;;1.40;1.23;;;17.50;65.20;;;;;;6199793;22;20227;-87
2024/02/29 00:46:27;;;;;;;2.55;1.13;;;17.60;65.30;;;;;;6250253;22;20147;-87
2024/02/29 00:48:53;;;;;;;1.50;1.10;;;17.50;65.50;;;;;;6224847;22;20584;-86
2024/02/29 00:51:19;;;;;;;1.20;1.10;;;17.50;65.40;;;;;;6199259;22;20168;-88
2024/02/29 00:53:45;;;;;;;1.20;1.02;;;17.50;65.70;;;;;;6198999;22;20232;-88
2024/02/29 00:56:16;;;;;;;1.88;1.30;;;17.50;65.20;;;;;;6199898;22;20173;-88
2024/02/29 00:58:42;;;;;;;1.98;1.33;;;17.60;65.20;;;;;;6198361;22;20202;-87
2024/02/29 01:01:08;;;;;;;1.70;1.30;;;17.50;65.30;;;;;;6224859;22;20564;-88
2024/02/29 01:03:35;;;;;;;1.55;1.10;;;17.50;64.90;;;;;;6198517;22;20151;-88
2024/02/29 01:06:01;;;;;;;1.73;1.33;;;17.50;65.40;;;;;;6224679;22;20232;-88
2024/02/29 01:08:28;;;;;;;1.92;1.30;;;17.50;65.50;;;;;;6199593;22;20160;-87
2024/02/29 01:10:54;;;;;;;1.15;1.05;;;17.60;65.20;;;;;;6148989;22;20148;-88
2024/02/29 01:13:21;;;;;;;1.60;1.40;;;17.50;65.30;;;;;;6276703;22;20149;-89
2024/02/29 01:15:48;;;;;;;2.10;1.42;;;17.50;65.60;;;;;;6224555;22;20145;-87
2024/02/29 01:18:17;;;;;;;2.50;1.35;;;17.50;65.70;;;;;;6200010;22;20195;-85
2024/02/29 01:20:43;;;;;;;3.10;1.60;;;17.50;65.30;;;;;;6197581;22;20156;-88
2024/02/29 01:23:08;;;;;;;1.55;1.08;;;17.50;65.40;;;;;;6223705;22;20129;-87
2024/02/29 01:25:35;;;;;;;1.25;1.10;;;17.50;66.20;;;;;;6199446;22;20153;-86
2024/02/29 01:28:05;;;;;;;1.33;1.20;;;17.50;65.60;;;;;;6250080;22;20167;-87
2024/02/29 01:30:31;;;;;;;1.65;1.30;;;17.50;65.30;;;;;;6149157;22;20206;-89
2024/02/29 01:32:57;;;;;;;1.52;1.30;;;17.50;65.50;;;;;;6249455;22;20251;-88
2024/02/29 01:35:25;;;;;;;1.60;1.35;;;17.50;65.30;;;;;;6199314;22;20171;-88
2024/02/29 01:37:52;;;;;;;2.20;1.27;;;17.50;65.70;;;;;;6199113;22;20223;-86
2024/02/29 01:40:18;;;;;;;1.45;1.30;;;17.50;65.30;;;;;;6199625;22;20152;-87
2024/02/29 01:42:48;;;;;;;1.25;1.15;;;17.50;65.20;;;;;;6199619;22;20156;-87
2024/02/29 01:45:16;;;;;;;1.52;1.27;;;17.50;65.70;;;;;;6173360;22;20239;-86
2024/02/29 01:47:42;;;;;;;1.73;1.50;;;17.50;65.60;;;;;;6199461;22;20148;-88
2024/02/29 01:50:09;;;;;;;1.65;1.15;;;17.50;65.40;;;;;;6249412;22;20220;-86
2024/02/29 01:52:40;;;;;;;2.28;1.30;;;17.50;65.40;;;;;;6198495;22;20180;-87
2024/02/29 01:55:06;;;;;;;2.47;1.20;;;17.50;65.60;;;;;;6199828;22;20153;-89
2024/02/29 01:57:32;;;;;;;1.65;1.30;;;17.50;65.70;;;;;;6224431;22;20208;-87
2024/02/29 01:59:57;;;;;;;2.55;1.25;;;17.40;65.60;;;;;;6223952;22;20547;-87
2024/02/29 02:02:23;;;;;;;1.30;1.20;;;17.40;65.20;;;;;;6224194;22;20225;-87
2024/02/29 02:04:49;;;;;;;1.52;1.23;;;17.40;65.60;;;;;;6224130;22;20155;-88
2024/02/29 02:07:16;;;;;;;1.83;1.30;;;17.40;65.40;;;;;;6223960;22;20542;-87
2024/02/29 02:09:43;;;;;;;2.00;1.33;;;17.40;65.40;;;;;;6224068;22;20591;-86
2024/02/29 02:12:10;;;;;;;1.55;1.23;;;17.40;65.60;;;;;;6223428;22;20157;-87
2024/02/29 02:14:37;;;;;;;1.50;1.02;;;17.40;65.70;;;;;;6276249;22;20214;-86
2024/02/29 02:17:02;;;;;;;1.30;1.10;;;17.50;65.60;;;;;;6223769;22;20125;-88
2024/02/29 02:19:29;;;;;;;1.50;1.40;;;17.40;65.80;;;;;;6196800;22;20214;-87
2024/02/29 02:21:56;;;;;;;1.90;1.27;;;17.30;65.60;;;;;;6222653;22;20159;-87
2024/02/29 02:24:24;;;;;;;1.35;1.15;;;17.40;65.50;;;;;;6222704;22;20653;-87
2024/02/29 02:26:50;;;;;;;2.03;1.50;;;17.50;65.30;;;;;;6275548;22;20133;-86
2024/02/29 02:29:15;;;;;;;1.67;1.20;;;17.40;65.20;;;;;;6224132;22;20177;-86
2024/02/29 02:31:43;;;;;;;2.08;1.58;;;17.40;65.50;;;;;;6248626;22;20500;-87
2024/02/29 02:34:08;;;;;;;1.58;1.27;;;17.40;65.50;;;;;;6198606;22;20572;-86
2024/02/29 02:36:34;;;;;;;2.70;1.30;;;17.40;65.50;;;;;;6273821;22;20144;-88
2024/02/29 02:39:00;;;;;;;1.50;1.40;;;17.40;65.50;;;;;;6198500;22;20257;-88
2024/02/29 02:41:26;;;;;;;1.60;1.20;;;17.40;65.60;;;;;;6198931;22;20222;-87
2024/02/29 02:43:52;;;;;;;1.45;1.10;;;17.40;65.90;;;;;;6274614;22;20155;-87
2024/02/29 02:46:19;;;;;;;1.98;1.30;;;17.30;65.90;;;;;;6249023;22;20659;-87
2024/02/29 02:48:45;;;;;;;1.50;1.20;;;17.40;65.90;;;;;;6224184;22;20572;-87
2024/02/29 02:51:11;;;;;;;1.27;1.10;;;17.30;65.50;;;;;;6223487;22;20132;-88
2024/02/29 02:53:38;;;;;;;1.35;1.08;;;17.40;66.00;;;;;;6247747;22;20168;-89
2024/02/29 02:56:07;;;;;;;1.77;1.20;;;17.40;65.80;;;;;;6198695;22;20145;-87
2024/02/29 02:58:33;;;;;;;1.42;1.30;;;17.40;65.60;;;;;;6172838;22;20161;-88
2024/02/29 03:00:58;;;;;;;1.38;1.27;;;17.30;65.60;;;;;;6223400;22;20198;-88
2024/02/29 03:03:25;;;;;;;2.85;1.60;;;17.40;65.80;;;;;;6223973;22;20571;-87
2024/02/29 03:05:50;;;;;;;1.50;1.30;;;17.40;65.90;;;;;;6198371;22;20145;-87
2024/02/29 03:08:17;;;;;;;1.30;1.13;;;17.30;65.80;;;;;;6198718;22;20151;-87
2024/02/29 03:10:43;;;;;;;1.42;1.23;;;17.30;65.70;;;;;;6199023;22;20152;-89
2024/02/29 03:13:09;;;;;;;1.63;1.30;;;17.30;66.10;;;;;;6198475;22;20745;-88
2024/02/29 03:15:35;;;;;;;1.60;1.23;;;17.30;66.50;;;;;;6198550;22;20933;-88
2024/02/29 03:18:01;;;;;;;2.58;1.20;;;17.30;65.90;;;;;;6223736;22;20195;-86
2024/02/29 03:20:27;;;;;;;1.83;1.40;;;17.30;65.90;;;;;;6198037;22;20152;-87
2024/02/29 03:22:54;;;;;;;1.70;1.30;;;17.30;66.10;;;;;;6223509;22;20627;-88
2024/02/29 03:25:20;;;;;;;1.25;1.08;;;17.30;65.90;;;;;;6223679;22;20133;-88
2024/02/29 03:27:46;;;;;;;2.60;1.48;;;17.30;66.00;;;;;;6247415;22;20345;-88
2024/02/29 03:30:15;;;;;;;1.60;1.42;;;17.30;66.10;;;;;;6247536;22;20262;-88
2024/02/29 03:32:43;;;;;;;2.53;1.40;;;17.40;66.30;;;;;;6172784;22;20187;-88
2024/02/29 03:35:14;;;;;;;1.67;1.20;;;17.30;65.70;;;;;;6173487;22;20148;-86
2024/02/29 03:37:39;;;;;;;1.70;1.33;;;17.30;66.00;;;;;;6198854;22;20164;-88
2024/02/29 03:40:06;;;;;;;1.92;1.33;;;17.20;66.40;;;;;;6199746;22;20156;-86
2024/02/29 03:42:32;;;;;;;2.13;1.40;;;17.20;66.10;;;;;;6225599;22;20210;-86
2024/02/29 03:44:59;;;;;;;1.83;1.60;;;17.30;66.10;;;;;;6200691;22;20153;-89
2024/02/29 03:47:25;;;;;;;1.73;1.23;;;17.20;66.00;;;;;;6200142;22;20156;-87
2024/02/29 03:49:52;;;;;;;1.40;1.05;;;17.20;66.10;;;;;;6200425;22;20572;-88
2024/02/29 03:52:18;;;;;;;1.77;1.30;;;17.20;66.00;;;;;;6225064;22;20249;-88
2024/02/29 03:54:46;;;;;;;1.67;1.48;;;17.30;66.30;;;;;;6277003;22;20556;-88
2024/02/29 03:57:12;;;;;;;2.25;1.42;;;17.30;66.10;;;;;;6201396;22;20191;-87
2024/02/29 03:59:37;;;;;;;3.05;1.30;;;17.20;66.20;;;;;;6225134;22;20141;-88
2024/02/29 04:02:03;;;;;;;1.48;1.30;;;17.20;66.30;;;;;;6251221;22;20133;-87
2024/02/29 04:04:29;;;;;;;1.67;1.38;;;17.20;66.10;;;;;;6251090;22;20625;-87
2024/02/29 04:06:56;;;;;;;3.13;1.33;;;17.20;66.00;;;;;;6199678;22;20218;-87
2024/02/29 04:09:22;;;;;;;2.10;1.48;;;17.20;66.30;;;;;;6224360;22;20152;-86
2024/02/29 04:11:49;;;;;;;1.77;1.35;;;17.20;66.20;;;;;;6199725;22;20180;-86
2024/02/29 04:14:16;;;;;;;1.80;1.45;;;17.20;66.40;;;;;;6150099;22;20148;-87
2024/02/29 04:16:43;;;;;;;1.88;1.52;;;17.30;66.30;;;;;;6199874;22;20145;-87
2024/02/29 04:19:09;;;;;;;1.85;1.30;;;17.20;65.80;;;;;;6250378;22;20214;-87
2024/02/29 04:21:35;;;;;;;2.15;1.40;;;17.20;66.20;;;;;;6225136;22;20491;-88
2024/02/29 04:24:02;;;;;;;2.58;1.48;;;17.30;66.10;;;;;;6224911;22;20208;-87
2024/02/29 04:26:30;;;;;;;1.38;1.20;;;17.20;66.00;;;;;;6225062;22;20140;-86
2024/02/29 04:28:56;;;;;;;1.42;1.27;;;17.20;66.30;;;;;;6224579;22;20251;-87
2024/02/29 04:31:24;;;;;;;2.17;1.35;;;17.20;66.20;;;;;;6225017;22;20554;-88
2024/02/29 04:33:53;;;;;;;3.03;1.70;;;17.20;66.30;;;;;;6199212;22;20549;-87
2024/02/29 04:36:18;;;;;;;1.90;1.48;;;17.20;66.20;;;;;;6174286;22;20148;-86
2024/02/29 04:38:44;;;;;;;3.47;1.45;;;17.20;66.10;;;;;;6224857;22;20175;-87
2024/02/29 04:41:11;;;;;;;1.73;1.38;;;17.30;66.20;;;;;;6225295;22;20149;-88
2024/02/29 04:43:39;;;;;;;1.85;1.40;;;17.20;66.10;;;;;;6224932;22;20168;-88
2024/02/29 04:46:04;;;;;;;1.60;1.50;;;17.20;66.30;;;;;;6198803;22;20223;-87
2024/02/29 04:48:30;;;;;;;1.58;1.20;;;17.20;66.10;;;;;;6224631;22;20216;-87
2024/02/29 04:50:57;;;;;;;1.70;1.52;;;17.20;66.10;;;;;;6224922;22;20148;-88
2024/02/29 04:53:25;;;;;;;2.20;1.10;;;17.20;66.00;;;;;;6223751;22;20263;-87
2024/02/29 04:55:51;;;;;;;1.58;1.30;;;17.20;65.90;;;;;;6173523;22;20152;-87
2024/02/29 04:58:18;;;;;;;1.48;1.27;;;17.20;66.20;;;;;;6199529;22;20580;-88
2024/02/29 05:00:44;;;;;;;2.35;1.50;;;17.20;66.10;;;;;;6224992;22;20140;-87
2024/02/29 05:03:10;;;;;;;1.70;1.45;;;17.30;66.20;;;;;;6224734;22;20877;-88
2024/02/29 05:05:36;;;;;;;1.55;1.33;;;17.20;66.20;;;;;;6250147;22;20137;-86
2024/02/29 05:08:02;;;;;;;1.90;1.30;;;17.10;66.10;;;;;;6250192;22;20143;-89
2024/02/29 05:10:28;;;;;;;1.60;1.40;;;17.20;66.40;;;;;;6225600;22;20129;-89
2024/02/29 05:12:54;;;;;;;1.80;1.40;;;17.20;66.20;;;;;;6199657;22;20226;-87
2024/02/29 05:15:20;;;;;;;2.17;1.30;;;17.20;66.50;;;;;;6200673;22;20588;-88
2024/02/29 05:17:47;;;;;;;1.50;1.40;;;17.20;66.40;;;;;;6191047;23;20201;-87
2024/02/29 05:20:15;;;;;;;2.22;1.50;;;17.10;66.50;;;;;;6170002;23;20153;-88
2024/02/29 05:22:42;;;;;;;1.90;1.40;;;17.10;66.30;;;;;;6219773;23;20174;-88
2024/02/29 05:25:13;;;;;;;1.73;1.30;;;17.20;66.30;;;;;;6169864;23;20149;-88
2024/02/29 05:27:39;;;;;;;2.10;1.40;;;17.10;66.40;;;;;;6168810;23;20211;-87
2024/02/29 05:30:06;;;;;;;2.53;1.33;;;17.10;66.60;;;;;;6219649;23;20138;-87
2024/02/29 05:32:32;;;;;;;1.30;1.20;;;17.10;66.30;;;;;;6169636;23;20177;-87
2024/02/29 05:34:59;;;;;;;2.80;1.70;;;17.10;66.40;;;;;;6170359;23;20145;-88
2024/02/29 05:37:27;;;;;;;1.73;1.50;;;17.10;66.20;;;;;;6170048;23;20145;-89
2024/02/29 05:39:53;;;;;;;2.03;1.42;;;17.20;66.30;;;;;;6170004;23;20603;-87
2024/02/29 05:42:21;;;;;;;3.10;1.52;;;17.20;66.50;;;;;;6169492;23;20145;-87
2024/02/29 05:44:46;;;;;;;2.03;1.23;;;17.20;66.40;;;;;;6195435;23;20141;-88
2024/02/29 05:47:15;;;;;;;4.05;1.50;;;17.20;66.30;;;;;;6194780;23;20138;-88
2024/02/29 05:49:41;;;;;;;2.13;1.33;;;17.10;66.30;;;;;;6193543;23;20141;-90
2024/02/29 05:52:08;;;;;;;2.08;1.60;;;17.20;66.50;;;;;;6218025;23;20172;-88
2024/02/29 05:54:33;;;;;;;2.83;1.65;;;17.10;66.20;;;;;;6217194;23;20148;-86
2024/02/29 05:56:59;;;;;;;2.08;1.55;;;17.10;66.40;;;;;;6192703;23;20134;-87
2024/02/29 05:59:25;;;;;;;2.45;1.73;;;17.20;66.20;;;;;;6192693;23;20205;-88
2024/02/29 06:01:51;;;;;;;1.50;1.40;;;17.10;66.30;;;;;;6192898;23;20137;-89
2024/02/29 06:04:19;;;;;;;1.90;1.42;;;17.10;66.30;;;;;;6219141;23;20187;-88
2024/02/29 06:06:47;;;;;;;1.40;1.30;;;17.10;66.40;;;;;;6194758;23;20155;-87
2024/02/29 06:09:14;;;;;;;2.30;1.58;;;17.10;66.30;;;;;;6170275;23;20180;-87
2024/02/29 06:11:41;;;;;;;2.25;1.60;;;17.10;66.30;;;;;;6193110;23;20248;-88
2024/02/29 06:14:06;;;;;;;2.53;1.85;;;17.10;66.40;;;;;;6193551;23;20192;-88
2024/02/29 06:16:33;;;;;;;1.48;1.30;;;17.10;66.20;;;;;;6193488;23;20138;-88
2024/02/29 06:19:01;;;;;;;2.70;1.55;;;17.10;66.30;;;;;;6244026;22;20219;-88
2024/02/29 06:21:27;;;;;;;1.83;1.48;;;17.10;66.30;;;;;;6224147;22;20133;-88
2024/02/29 06:23:54;;;;;;;2.40;1.55;;;17.10;66.40;;;;;;6198945;22;20152;-89
2024/02/29 06:26:20;;;;;;;2.45;1.80;;;17.10;66.30;;;;;;6224084;22;20137;-87
2024/02/29 06:28:47;;;;;;;2.20;1.50;;;17.10;66.10;;;;;;6199437;22;20187;-89
2024/02/29 06:31:13;;;;;;;1.55;1.45;;;17.10;66.30;;;;;;6148581;22;20626;-89
2024/02/29 06:33:43;;;;;;;1.77;1.52;;;17.10;66.40;;;;;;6249589;22;20133;-88
2024/02/29 06:36:10;;;;;;;2.08;1.50;;;17.10;65.90;;;;;;6172537;22;20149;-89
2024/02/29 06:38:36;;;;;;;1.63;1.35;;;17.10;66.30;;;;;;6198180;22;20163;-89
2024/02/29 06:41:07;;;;;;;2.30;1.60;;;17.10;66.30;;;;;;6197810;22;20176;-87
2024/02/29 06:43:37;;;;;;;1.90;1.70;;;17.10;66.00;;;;;;6198257;22;20153;-88
2024/02/29 06:46:07;;;;;;;2.05;1.50;;;17.10;66.40;;;;;;6146799;22;20157;-88
2024/02/29 06:48:33;;;;;;;3.47;1.75;;;17.20;66.40;;;;;;6196583;22;20156;-88
2024/02/29 06:51:02;;;;;;;3.80;1.75;;;17.10;66.20;;;;;;6197328;22;20159;-88
2024/02/29 06:53:30;;;;;;;1.80;1.45;;;17.10;66.20;;;;;;6221802;22;20161;-87
2024/02/29 06:55:58;;;;;;;2.45;1.65;;;17.10;66.20;;;;;;6197915;22;20159;-88
2024/02/29 06:58:23;;;;;;;2.63;1.40;;;17.10;66.40;;;;;;6223527;22;20140;-87
2024/02/29 07:00:50;;;;;;;4.35;1.70;;;17.10;65.80;;;;;;6223063;22;20212;-90
2024/02/29 07:03:17;;;;;;;2.03;1.33;;;17.10;65.60;;;;;;6223122;22;20160;-86
2024/02/29 07:05:45;;;;;;;2.83;1.70;;;17.20;65.90;;;;;;6223097;22;20186;-88
2024/02/29 07:08:13;;;;;;;3.33;1.63;;;17.20;65.40;;;;;;6224154;22;20164;-89
2024/02/29 07:10:40;;;;;;;2.03;1.67;;;17.30;65.40;;;;;;6224009;22;20240;-87
2024/02/29 07:13:06;;;;;;;2.78;1.63;;;17.20;65.00;;;;;;6199104;22;20233;-89
2024/02/29 07:15:36;;;;;;;3.30;1.73;;;17.30;64.70;;;;;;6248837;22;20155;-87
2024/02/29 07:18:02;;;;;;;5.13;1.70;;;17.30;64.60;;;;;;6184705;23;20231;-88
2024/02/29 07:20:28;;;;;;;2.80;1.88;;;17.40;64.70;;;;;;6168775;23;20150;-88
2024/02/29 07:22:55;;;;;;;1.67;1.45;;;17.30;64.80;;;;;;6193533;23;20140;-87
2024/02/29 07:25:22;;;;;;;2.83;1.88;;;17.30;64.80;;;;;;6193978;23;20253;-87
2024/02/29 07:27:49;;;;;;;3.53;1.90;;;17.30;64.50;;;;;;6168839;23;20457;-89
2024/02/29 07:30:18;;;;;;;5.13;1.88;;;17.40;64.20;;;;;;6218568;23;20468;-89
2024/02/29 07:32:44;;;;;;;5.07;1.45;;;17.40;64.40;;;;;;6193794;23;20173;-88
2024/02/29 07:35:14;;;;;;;4.90;1.95;;;17.40;64.60;;;;;;6245432;23;20137;-88
2024/02/29 07:37:41;;;;;;;2.42;1.70;;;17.30;64.70;;;;;;6193954;23;20228;-87
2024/02/29 07:40:11;;;;;;;2.08;1.50;;;17.30;64.30;;;;;;6169504;23;20156;-88
2024/02/29 07:42:39;;;;;;;2.95;1.63;;;17.30;64.70;;;;;;6193566;23;20184;-87
2024/02/29 07:45:10;;;;;;;3.35;1.70;;;17.30;64.70;;;;;;6169155;23;20149;-87
2024/02/29 07:47:36;;;;;;;4.40;1.63;;;17.30;63.70;;;;;;6167823;23;20535;-88
2024/02/29 07:50:05;;;;;;;2.00;1.80;;;17.30;65.50;;;;;;6195687;23;20150;-89
2024/02/29 07:52:37;;;;;;;3.35;1.65;;;17.40;64.10;;;;;;6196186;23;20193;-87
2024/02/29 07:55:05;;;;;;;3.83;1.95;;;17.30;64.70;;;;;;6170467;23;20588;-89
2024/02/29 07:57:31;;;;;;;4.95;1.92;;;17.30;64.60;;;;;;6171146;23;20146;-87
2024/02/29 07:59:57;;;;;;;3.22;1.35;;;17.30;64.60;;;;;;6195092;23;20141;-89
2024/02/29 08:02:24;;;;;;;3.67;1.80;;;17.30;64.80;;;;;;6170475;23;20153;-88
2024/02/29 08:04:50;;;;;;;3.80;1.90;;;17.30;63.80;;;;;;6195949;23;20134;-90
2024/02/29 08:07:16;;;;;;;2.40;1.42;;;17.30;64.50;;;;;;6170260;23;20153;-89
2024/02/29 08:09:46;;;;;;;4.47;1.90;;;17.30;64.60;;;;;;6219617;23;20157;-90
2024/02/29 08:12:12;;;;;;;5.30;1.83;;;17.30;64.30;;;;;;6147569;23;20182;-88
2024/02/29 08:14:38;;;;;;;2.50;1.63;;;17.30;64.70;;;;;;6194440;23;20176;-87
2024/02/29 08:17:07;;;;;;;3.70;1.65;;;17.30;64.60;;;;;;6195760;22;20549;-85
2024/02/29 08:19:34;;;;;;;3.88;2.05;;;17.40;64.50;;;;;;6201507;22;20207;-87
2024/02/29 08:21:59;;;;;;;3.47;1.75;;;17.40;64.50;;;;;;6252027;22;20161;-89
2024/02/29 08:24:25;;;;;;;3.97;1.73;;;17.30;64.10;;;;;;6252207;22;20140;-86
2024/02/29 08:26:56;;;;;;;2.67;1.83;;;17.40;64.50;;;;;;6225386;22;20133;-87
2024/02/29 08:29:22;;;;;;;2.30;1.67;;;17.30;64.40;;;;;;6200137;22;20153;-85
2024/02/29 08:31:50;;;;;;;3.80;1.85;;;17.40;64.20;;;;;;6228402;22;20176;-89
2024/02/29 08:34:16;;;;;;;2.70;2.00;;;17.40;64.20;;;;;;6203919;22;20235;-86
2024/02/29 08:36:43;;;;;;;3.90;1.77;;;17.30;64.40;;;;;;6206021;22;20148;-87
2024/02/29 08:39:08;;;;;;;2.42;1.75;;;17.30;64.50;;;;;;6203953;22;20155;-87
2024/02/29 08:41:34;;;;;;;2.72;1.80;;;17.30;64.60;;;;;;6204907;22;20172;-87
2024/02/29 08:44:06;;;;;;;2.35;1.50;;;17.40;64.60;;;;;;6253664;22;20140;-86
2024/02/29 08:46:33;;;;;;;2.53;1.65;;;17.40;64.40;;;;;;6178716;22;20183;-86
2024/02/29 08:49:00;;;;;;;2.75;2.00;;;17.40;64.20;;;;;;6204271;22;20153;-89
2024/02/29 08:51:26;;;;;;;4.57;1.70;;;17.40;64.20;;;;;;6230231;22;20141;-87
2024/02/29 08:53:53;;;;;;;3.53;1.65;;;17.40;64.50;;;;;;6201424;22;20194;-86
2024/02/29 08:56:19;;;;;;;3.05;1.85;;;17.40;64.00;;;;;;6228660;22;20129;-87
2024/02/29 08:58:50;;;;;;;3.17;1.77;;;17.40;64.10;;;;;;6204327;22;20145;-88
2024/02/29 09:01:22;;;;;;;4.32;1.90;;;17.50;64.10;;;;;;6168200;23;20244;-88
2024/02/29 09:03:53;;;;;;;5.47;2.10;;;17.50;64.00;;;;;;6169221;23;20617;-87
2024/02/29 09:06:19;;;;;;;3.05;1.52;;;17.50;64.00;;;;;;6120407;23;20150;-88
2024/02/29 09:08:45;;;;;;;2.97;1.60;;;17.50;64.50;;;;;;6168756;23;20225;-89
2024/02/29 09:11:11;;;;;;;2.53;1.52;;;17.50;64.10;;;;;;6170177;23;20224;-86
2024/02/29 09:13:39;;;;;;;2.53;1.70;;;17.60;63.90;;;;;;6194309;23;20166;-88
2024/02/29 09:16:06;;;;;;;2.30;1.60;;;17.60;64.00;;;;;;6143723;23;20177;-88
2024/02/29 09:18:33;;;;;;;3.13;1.80;;;17.60;63.50;;;;;;6193039;23;20196;-87
2024/02/29 09:21:02;;;;;;;3.17;1.73;;;17.60;63.90;;;;;;6117526;23;20201;-88
2024/02/29 09:23:28;;;;;;;2.30;1.70;;;17.60;64.00;;;;;;6168477;23;20150;-87
2024/02/29 09:26:03;;;;;;;2.45;1.75;;;17.60;64.10;;;;;;6189567;22;20148;-87
2024/02/29 09:28:34;;;;;;;4.38;2.00;;;17.60;64.00;;;;;;6227658;22;20143;-87
2024/02/29 09:31:03;;;;;;;2.20;1.77;;;17.60;63.90;;;;;;6186195;23;20155;-87
2024/02/29 09:33:33;;;;;;;4.47;1.90;;;17.60;63.80;;;;;;6187461;23;20179;-87
2024/02/29 09:35:59;;;;;;;2.25;1.73;;;17.60;63.70;;;;;;6186278;23;20146;-86
2024/02/29 09:38:25;;;;;;;5.72;1.65;;;17.60;63.40;;;;;;6128057;23;20469;-90
2024/02/29 09:40:51;;;;;;;2.03;1.80;;;17.60;63.40;;;;;;6080192;23;20159;-88
2024/02/29 09:43:18;;;;;;;2.72;2.03;;;17.60;62.90;;;;;;6083058;23;20166;-88
2024/02/29 09:45:45;;;;;;;3.50;1.60;;;17.60;63.50;;;;;;6059396;23;20176;-87
2024/02/29 09:48:11;;;;;;;3.00;1.83;;;17.60;63.60;;;;;;6057335;23;20234;-86
2024/02/29 09:50:38;;;;;;;2.78;1.90;;;17.70;63.40;;;;;;6082799;23;20155;-88
2024/02/29 09:53:15;;;;;;;2.35;1.80;;;17.60;63.80;;;;;;6084193;23;20183;-88
2024/02/29 09:55:45;;;;;;;2.40;1.63;;;17.70;63.50;;;;;;6083792;23;20179;-89
2024/02/29 09:58:17;;;;;;;2.30;1.80;;;17.60;63.30;;;;;;6056393;23;20152;-86
2024/02/29 10:00:44;;;;;;;2.45;1.70;;;17.70;63.70;;;;;;6058123;23;20187;-87
2024/02/29 10:03:16;;;;;;;3.58;1.70;;;17.60;63.60;;;;;;6141612;23;20192;-87
2024/02/29 10:05:45;;;;;;;4.95;1.80;;;17.60;63.20;;;;;;6143908;23;20153;-88
2024/02/29 10:08:12;;;;;;;2.72;1.60;;;17.70;63.50;;;;;;6142581;23;20150;-85
2024/02/29 10:10:41;;;;;;;2.95;1.88;;;17.70;63.40;;;;;;6228980;22;20152;-87
2024/02/29 10:13:08;;;;;;;2.28;1.60;;;17.70;63.90;;;;;;6203506;22;20177;-88
2024/02/29 10:15:35;;;;;;;3.08;1.42;;;17.70;63.50;;;;;;6202904;22;20181;-89
2024/02/29 10:18:07;;;;;;;2.63;1.52;;;17.70;63.80;;;;;;6213512;23;20509;-87
2024/02/29 10:20:33;;;;;;;2.95;1.80;;;17.70;63.60;;;;;;6149216;23;20150;-88
2024/02/29 10:23:28;;;;;;;1.75;1.50;;;17.70;63.30;;;;;;6196387;23;20187;-89
2024/02/29 10:26:00;;;;;;;4.32;1.90;;;17.70;63.60;;;;;;6193272;23;20203;-88
2024/02/29 10:28:27;;;;;;;4.00;1.80;;;17.70;63.80;;;;;;6174112;23;20169;-86
2024/02/29 10:31:00;;;;;;;3.80;1.98;;;17.70;63.10;;;;;;6198227;23;20211;-89
2024/02/29 10:33:29;;;;;;;4.75;1.67;;;17.80;63.60;;;;;;6172454;23;20215;-88
2024/02/29 10:35:56;;;;;;;2.45;1.60;;;17.70;63.70;;;;;;6172514;23;20611;-88
2024/02/29 10:38:27;;;;;;;3.45;1.70;;;17.80;63.60;;;;;;6196311;23;20149;-87
2024/02/29 10:41:00;;;;;;;2.28;1.40;;;17.70;63.20;;;;;;6108726;23;20188;-87
2024/02/29 10:43:30;;;;;;;2.42;1.77;;;17.70;63.40;;;;;;6082183;23;20171;-88
2024/02/29 10:45:56;;;;;;;2.72;1.75;;;17.70;62.60;;;;;;6109053;23;20155;-86
2024/02/29 10:48:48;;;;;;;3.40;2.15;;;17.70;62.70;;;;;;6105519;23;20155;-89
2024/02/29 10:51:41;;;;;;;2.70;1.92;;;17.70;63.00;;;;;;6129546;23;20246;-89
2024/02/29 10:54:19;;;;;;;2.03;1.58;;;17.70;62.60;;;;;;6106079;23;20591;-88
2024/02/29 10:56:48;;;;;;;1.73;1.60;;;17.70;62.80;;;;;;6104479;23;20155;-86
2024/02/29 10:59:18;;;;;;;3.08;1.70;;;17.70;62.20;;;;;;6105989;23;20142;-88
2024/02/29 11:01:45;;;;;;;3.53;1.92;;;17.80;62.60;;;;;;6104900;23;20214;-88
2024/02/29 11:04:11;;;;;;;2.30;1.77;;;17.70;62.30;;;;;;6105329;23;20595;-88
2024/02/29 11:06:42;;;;;;;2.20;1.90;;;17.80;62.30;;;;;;6128835;23;20182;-87
2024/02/29 11:09:13;;;;;;;3.97;1.58;;;17.80;62.10;;;;;;6105796;23;20135;-88
2024/02/29 11:12:08;;;;;;;2.83;2.08;;;17.80;62.50;;;;;;6118721;23;20188;-89
2024/02/29 11:14:38;;;;;;;3.63;1.98;;;17.80;62.20;;;;;;6205168;23;20271;-87
2024/02/29 11:17:06;;;;;;;3.75;2.22;;;17.80;62.20;;;;;;6219925;22;20168;-89
2024/02/29 11:19:32;;;;;;;2.38;1.65;;;17.80;62.60;;;;;;6200776;22;20159;-86
2024/02/29 11:22:10;;;;;;;3.53;1.85;;;17.80;63.00;;;;;;6206405;22;20172;-87
2024/02/29 11:24:39;;;;;;;2.47;1.90;;;17.90;62.70;;;;;;6200395;22;20171;-87
2024/02/29 11:27:11;;;;;;;3.95;2.00;;;17.80;62.00;;;;;;6201596;22;20172;-86
2024/02/29 11:29:39;;;;;;;2.08;1.48;;;17.80;63.00;;;;;;6200789;22;20175;-86
2024/02/29 11:32:06;;;;;;;2.55;1.80;;;17.80;63.30;;;;;;6203316;22;20172;-87
2024/02/29 11:34:32;;;;;;;2.35;1.77;;;17.70;63.30;;;;;;6201262;22;20571;-86
2024/02/29 11:36:58;;;;;;;2.58;2.00;;;17.70;62.70;;;;;;6199298;22;20145;-87
2024/02/29 11:39:24;;;;;;;2.67;1.80;;;17.80;62.20;;;;;;6224667;22;20144;-87
2024/02/29 11:42:06;;;;;;;3.05;1.65;;;17.80;62.30;;;;;;6200044;22;20153;-87
2024/02/29 11:44:47;;;;;;;3.42;1.92;;;17.80;62.50;;;;;;6225229;22;20175;-86
2024/02/29 11:47:18;;;;;;;4.28;1.83;;;17.80;62.40;;;;;;6177638;22;20211;-86
2024/02/29 11:49:47;;;;;;;2.78;1.70;;;17.80;61.90;;;;;;6198441;22;20157;-87
2024/02/29 11:52:15;;;;;;;3.45;2.13;;;17.80;62.40;;;;;;6223464;22;20165;-88
2024/02/29 11:54:42;;;;;;;3.47;2.35;;;17.80;62.50;;;;;;6200516;22;20453;-86
2024/02/29 11:57:11;;;;;;;2.63;1.60;;;17.80;61.80;;;;;;6200703;22;20177;-86
2024/02/29 11:59:39;;;;;;;3.63;1.77;;;17.80;62.70;;;;;;6200728;22;20493;-89
2024/02/29 12:02:06;;;;;;;2.92;1.88;;;17.70;63.10;;;;;;6200639;22;20184;-86
2024/02/29 12:04:32;;;;;;;2.55;1.95;;;17.70;62.10;;;;;;6226170;22;20156;-88
2024/02/29 12:06:58;;;;;;;3.33;2.20;;;17.70;61.80;;;;;;6250176;22;20212;-87
2024/02/29 12:09:23;;;;;;;3.17;2.10;;;17.80;61.40;;;;;;6225284;22;20129;-87
2024/02/29 12:11:50;;;;;;;3.70;2.10;;;17.80;61.60;;;;;;6250734;22;20165;-87
2024/02/29 12:14:16;;;;;;;2.88;2.00;;;17.80;61.60;;;;;;6226018;22;20149;-87
2024/02/29 12:16:43;;;;;;;2.45;2.03;;;17.90;62.00;;;;;;6200299;22;20540;-87
2024/02/29 12:19:09;;;;;;;2.33;1.92;;;17.80;61.80;;;;;;6200105;22;20215;-87
2024/02/29 12:21:35;;;;;;;3.33;2.20;;;17.80;61.70;;;;;;6224645;22;20129;-87
2024/02/29 12:24:01;;;;;;;3.05;2.28;;;17.80;61.70;;;;;;6199787;22;20210;-87
2024/02/29 12:26:27;;;;;;;3.20;2.05;;;17.80;60.70;;;;;;6200428;22;20153;-88
2024/02/29 12:28:54;;;;;;;2.63;1.80;;;17.80;62.00;;;;;;6250849;22;20441;-87
2024/02/29 12:31:20;;;;;;;2.72;1.95;;;17.90;61.40;;;;;;6251862;22;20157;-86
2024/02/29 12:33:46;;;;;;;2.67;2.20;;;17.80;61.30;;;;;;6231498;22;20145;-85
2024/02/29 12:36:13;;;;;;;2.75;1.95;;;17.90;61.00;;;;;;6255962;22;20163;-88
2024/02/29 12:38:40;;;;;;;4.88;2.63;;;17.90;61.50;;;;;;6204642;22;20227;-87
2024/02/29 12:41:06;;;;;;;5.40;2.10;;;17.90;60.90;;;;;;6204282;22;20148;-86
2024/02/29 12:43:33;;;;;;;3.30;1.95;;;17.90;62.00;;;;;;6205235;22;20153;-87
2024/02/29 12:45:59;;;;;;;4.30;2.20;;;17.80;61.40;;;;;;6226477;22;20235;-87
2024/02/29 12:48:26;;;;;;;2.88;1.70;;;17.80;61.90;;;;;;6226135;22;20183;-86
2024/02/29 12:50:52;;;;;;;5.30;2.22;;;17.80;62.10;;;;;;6202665;22;20240;-87